createdAt,value
2018-09-05T00:00:14.040Z,10.70
2018-09-05T00:02:42.207Z,11.30
2018-09-05T00:05:10.419Z,11.10
2018-09-05T00:07:38.675Z,9.80
2018-09-05T00:10:06.887Z,12.43
2018-09-05T00:12:35.070Z,9.83
2018-09-05T00:15:03.219Z,11.00
2018-09-05T00:17:31.404Z,9.90
2018-09-05T00:19:59.511Z,9.67
2018-09-05T00:22:27.809Z,11.27
2018-09-05T00:24:55.971Z,9.20
2018-09-05T00:27:24.153Z,9.93
2018-09-05T00:29:52.433Z,9.63
2018-09-05T00:32:20.585Z,11.17
2018-09-05T00:34:48.750Z,10.80
2018-09-05T00:37:16.853Z,10.43
2018-09-05T00:39:45.074Z,10.10
2018-09-05T00:42:13.223Z,10.50
2018-09-05T00:44:41.900Z,11.00
2018-09-05T00:47:10.119Z,11.33
2018-09-05T00:49:38.312Z,10.97
2018-09-05T00:52:06.487Z,12.53
2018-09-05T00:54:34.649Z,11.07
2018-09-05T00:57:02.796Z,10.27
2018-09-05T00:59:30.904Z,11.20
2018-09-05T01:01:59.166Z,11.13
2018-09-05T01:04:27.380Z,11.60
2018-09-05T01:06:55.522Z,11.03
2018-09-05T01:09:23.757Z,11.07
2018-09-05T01:11:51.900Z,11.27
2018-09-05T01:14:20.024Z,9.60
2018-09-05T01:16:48.176Z,11.13
2018-09-05T01:19:16.317Z,10.90
2018-09-05T01:21:44.520Z,11.33
2018-09-05T01:24:12.634Z,10.90
2018-09-05T01:27:43.549Z,12.20
2018-09-05T01:30:11.729Z,11.57
2018-09-05T01:32:39.942Z,11.93
2018-09-05T01:35:08.119Z,11.40
2018-09-05T01:37:36.227Z,10.97
2018-09-05T01:40:04.527Z,10.97
2018-09-05T01:42:32.797Z,10.47
2018-09-05T01:45:00.868Z,11.43
2018-09-05T01:47:29.076Z,11.07
2018-09-05T01:49:57.218Z,11.00
2018-09-05T01:52:25.367Z,11.13
2018-09-05T01:54:53.502Z,11.60
2018-09-05T01:57:21.664Z,11.40
2018-09-05T01:59:49.830Z,10.57
2018-09-05T02:02:18.806Z,10.50
2018-09-05T02:04:46.986Z,9.97
2018-09-05T02:07:15.163Z,11.47
2018-09-05T02:09:43.367Z,12.33
2018-09-05T02:12:11.539Z,11.70
2018-09-05T02:14:39.707Z,11.20
2018-09-05T02:17:07.853Z,10.80
2018-09-05T02:19:36.024Z,11.50
2018-09-05T02:22:04.178Z,10.70
2018-09-05T02:24:32.316Z,11.27
2018-09-05T02:27:00.425Z,10.53
2018-09-05T02:29:28.645Z,10.43
2018-09-05T02:31:56.767Z,10.60
2018-09-05T02:34:25.010Z,11.03
2018-09-05T02:36:53.140Z,11.50
2018-09-05T02:39:21.294Z,10.50
2018-09-05T02:41:49.417Z,11.00
2018-09-05T02:44:21.047Z,9.90
2018-09-05T02:46:49.565Z,10.67
2018-09-05T02:49:17.830Z,11.53
2018-09-05T02:51:46.500Z,10.43
2018-09-05T02:54:14.676Z,10.17
2018-09-05T02:56:42.852Z,11.47
2018-09-05T02:59:10.981Z,10.27
2018-09-05T03:01:39.185Z,11.20
2018-09-05T03:04:07.342Z,11.13
2018-09-05T03:06:35.563Z,10.87
2018-09-05T03:09:05.371Z,11.07
2018-09-05T03:11:33.459Z,11.10
2018-09-05T03:14:01.653Z,10.37
2018-09-05T03:16:29.891Z,11.10
2018-09-05T03:18:58.054Z,13.10
2018-09-05T03:21:26.254Z,10.67
2018-09-05T03:23:54.372Z,12.70
2018-09-05T03:26:22.563Z,12.77
2018-09-05T03:28:50.680Z,12.20
2018-09-05T03:31:18.836Z,12.30
2018-09-05T03:33:47.007Z,12.53
2018-09-05T03:36:16.053Z,11.63
2018-09-05T03:38:44.187Z,10.40
2018-09-05T03:41:12.260Z,12.03
2018-09-05T03:43:40.430Z,12.00
2018-09-05T03:46:08.553Z,12.90
2018-09-05T03:48:36.703Z,11.73
2018-09-05T03:51:04.827Z,11.57
2018-09-05T03:53:33.013Z,12.37
2018-09-05T03:56:01.127Z,11.23
2018-09-05T03:58:29.395Z,11.47
2018-09-05T04:00:57.556Z,11.77
2018-09-05T04:03:25.710Z,11.83
2018-09-05T04:05:53.847Z,10.90
2018-09-05T04:08:22.031Z,12.50
2018-09-05T04:10:50.301Z,12.20
2018-09-05T04:13:18.518Z,11.83
2018-09-05T04:15:46.655Z,12.87
2018-09-05T04:18:14.802Z,11.70
2018-09-05T04:20:43.106Z,12.40
2018-09-05T04:23:11.270Z,11.93
2018-09-05T04:25:39.387Z,11.97
2018-09-05T04:28:07.703Z,11.40
2018-09-05T04:30:35.857Z,11.23
2018-09-05T04:33:04.014Z,11.33
2018-09-05T04:35:32.211Z,11.77
2018-09-05T04:38:00.325Z,12.00
2018-09-05T04:40:28.578Z,11.83
2018-09-05T04:42:56.730Z,14.67
2018-09-05T04:45:24.975Z,11.60
2018-09-05T04:47:53.059Z,13.37
2018-09-05T04:50:21.327Z,12.13
2018-09-05T04:52:49.508Z,11.33
2018-09-05T04:55:17.606Z,12.77
2018-09-05T04:57:45.785Z,12.27
2018-09-05T05:00:13.996Z,12.13
2018-09-05T05:02:42.286Z,13.27
2018-09-05T05:05:10.489Z,11.43
2018-09-05T05:07:38.687Z,11.40
2018-09-05T05:10:06.917Z,13.97
2018-09-05T05:12:35.142Z,12.90
2018-09-05T05:15:03.290Z,11.20
2018-09-05T05:17:31.400Z,11.87
2018-09-05T05:19:59.517Z,11.90
2018-09-05T05:22:27.742Z,11.77
2018-09-05T05:24:55.847Z,12.30
2018-09-05T05:27:24.022Z,11.50
2018-09-05T05:29:52.192Z,11.33
2018-09-05T05:32:21.413Z,12.43
2018-09-05T05:34:49.626Z,11.87
2018-09-05T05:37:17.828Z,12.73
2018-09-05T05:39:45.985Z,12.83
2018-09-05T05:42:14.158Z,12.10
2018-09-05T05:44:42.291Z,12.90
2018-09-05T05:47:10.420Z,12.00
2018-09-05T05:49:38.566Z,12.60
2018-09-05T05:52:06.735Z,13.27
2018-09-05T05:54:36.160Z,13.43
2018-09-05T05:57:04.619Z,12.60
2018-09-05T05:59:32.789Z,13.03
2018-09-05T06:02:01.013Z,12.43
2018-09-05T06:04:29.215Z,13.53
2018-09-05T06:06:57.408Z,12.53
2018-09-05T06:09:26.112Z,14.40
2018-09-05T06:11:54.370Z,14.80
2018-09-05T06:14:22.607Z,13.27
2018-09-05T06:16:50.710Z,12.47
2018-09-05T06:19:18.909Z,14.07
2018-09-05T06:21:47.056Z,14.67
2018-09-05T06:24:15.318Z,14.77
2018-09-05T06:26:43.475Z,13.77
2018-09-05T06:29:11.668Z,12.97
2018-09-05T06:31:39.847Z,13.63
2018-09-05T06:34:08.016Z,16.10
2018-09-05T06:36:39.027Z,15.20
2018-09-05T06:39:09.597Z,14.90
2018-09-05T06:41:37.977Z,14.70
2018-09-05T06:44:06.293Z,15.83
2018-09-05T06:46:34.579Z,15.83
2018-09-05T06:49:02.832Z,16.20
2018-09-05T06:51:31.255Z,17.10
2018-09-05T06:53:59.321Z,16.43
2018-09-05T06:56:27.489Z,13.40
2018-09-05T06:58:55.740Z,15.17
2018-09-05T07:01:23.870Z,15.83
2018-09-05T07:03:52.035Z,15.07
2018-09-05T07:06:20.135Z,16.70
2018-09-05T07:08:48.366Z,14.80
2018-09-05T07:11:16.492Z,16.03
2018-09-05T07:13:44.680Z,16.53
2018-09-05T07:16:13.040Z,15.33
2018-09-05T07:18:41.328Z,16.33
2018-09-05T07:21:09.638Z,17.17
2018-09-05T07:23:37.778Z,17.03
2018-09-05T07:26:06.396Z,15.47
2018-09-05T07:28:34.620Z,17.17
2018-09-05T07:31:03.040Z,16.57
2018-09-05T07:33:31.302Z,17.97
2018-09-05T07:35:59.558Z,15.80
2018-09-05T07:38:27.704Z,15.10
2018-09-05T07:40:55.987Z,16.30
2018-09-05T07:43:24.297Z,16.40
2018-09-05T07:45:52.462Z,14.43
2018-09-05T07:48:20.636Z,15.63
2018-09-05T07:50:48.934Z,16.90
2018-09-05T07:53:17.103Z,15.20
2018-09-05T07:55:45.360Z,16.10
2018-09-05T07:58:13.561Z,15.73
2018-09-05T08:00:41.704Z,14.87
2018-09-05T08:03:09.924Z,15.47
2018-09-05T08:05:38.080Z,13.67
2018-09-05T08:08:06.332Z,15.03
2018-09-05T08:10:34.443Z,14.40
2018-09-05T08:13:02.682Z,15.90
2018-09-05T08:15:30.897Z,19.10
2018-09-05T08:17:59.168Z,14.80
2018-09-05T08:20:27.331Z,17.50
2018-09-05T08:22:55.448Z,17.30
2018-09-05T08:25:23.624Z,15.80
2018-09-05T08:27:51.731Z,16.27
2018-09-05T08:30:19.918Z,17.07
2018-09-05T08:32:48.059Z,16.23
2018-09-05T08:35:16.393Z,14.17
2018-09-05T08:37:44.469Z,16.00
2018-09-05T08:40:12.564Z,15.53
2018-09-05T08:42:40.878Z,17.37
2018-09-05T08:45:09.229Z,15.60
2018-09-05T08:47:37.207Z,15.77
2018-09-05T08:50:05.496Z,17.27
2018-09-05T08:53:02.139Z,17.83
2018-09-05T08:55:30.488Z,18.47
2018-09-05T08:57:58.717Z,15.40
2018-09-05T09:00:26.994Z,16.97
2018-09-05T09:02:55.316Z,16.80
2018-09-05T09:05:23.495Z,19.87
2018-09-05T09:07:51.683Z,17.80
2018-09-05T09:10:19.971Z,17.20
2018-09-05T09:12:48.281Z,15.97
2018-09-05T09:15:17.135Z,17.30
2018-09-05T09:17:45.445Z,15.70
2018-09-05T09:20:13.722Z,16.30
2018-09-05T09:22:41.883Z,16.10
2018-09-05T09:25:10.079Z,17.43
2018-09-05T09:27:38.343Z,17.70
2018-09-05T09:30:06.543Z,17.13
2018-09-05T09:32:34.831Z,15.77
2018-09-05T09:35:03.098Z,16.13
2018-09-05T09:37:31.676Z,16.00
2018-09-05T09:39:59.788Z,16.03
2018-09-05T09:42:27.972Z,16.77
2018-09-05T09:44:56.198Z,17.27
2018-09-05T09:47:24.529Z,18.07
2018-09-05T09:49:52.707Z,16.50
2018-09-05T09:52:21.950Z,13.73
2018-09-05T09:54:51.528Z,14.90
2018-09-05T09:57:19.918Z,15.63
2018-09-05T09:59:48.092Z,15.20
2018-09-05T10:02:21.941Z,16.37
2018-09-05T10:04:55.818Z,15.73
2018-09-05T10:08:33.180Z,15.40
2018-09-05T10:11:17.312Z,14.00
2018-09-05T10:13:51.171Z,14.03
2018-09-05T10:16:24.973Z,13.30
2018-09-05T10:18:53.572Z,13.13
2018-09-05T10:21:21.936Z,15.33
2018-09-05T10:23:50.137Z,14.00
2018-09-05T10:26:18.319Z,14.90
2018-09-05T10:28:46.621Z,15.17
2018-09-05T10:31:14.800Z,16.23
2018-09-05T10:33:42.963Z,14.50
2018-09-05T10:36:11.135Z,14.37
2018-09-05T10:38:39.253Z,16.57
2018-09-05T10:41:07.366Z,13.80
2018-09-05T10:43:35.504Z,16.17
2018-09-05T10:46:03.663Z,15.03
2018-09-05T10:48:31.930Z,16.00
2018-09-05T10:51:00.054Z,16.20
2018-09-05T10:53:28.215Z,15.37
2018-09-05T10:55:56.389Z,14.90
2018-09-05T10:58:24.540Z,15.43
2018-09-05T11:00:52.768Z,15.67
2018-09-05T11:03:20.883Z,15.90
2018-09-05T11:05:49.095Z,16.57
2018-09-05T11:08:17.255Z,16.60
2018-09-05T11:10:45.364Z,16.33
2018-09-05T11:13:13.448Z,16.10
2018-09-05T11:15:41.536Z,14.73
2018-09-05T11:18:09.704Z,15.27
2018-09-05T11:20:37.872Z,16.33
2018-09-05T11:23:06.064Z,16.33
2018-09-05T11:25:34.312Z,16.27
2018-09-05T11:28:02.396Z,15.90
2018-09-05T11:30:30.520Z,15.30
2018-09-05T11:32:58.737Z,15.63
2018-09-05T11:35:26.797Z,14.80
2018-09-05T11:37:54.947Z,14.37
2018-09-05T11:40:23.167Z,16.47
2018-09-05T11:42:51.323Z,16.13
2018-09-05T11:45:19.516Z,15.87
2018-09-05T11:47:47.636Z,14.63
2018-09-05T11:50:15.784Z,14.93
2018-09-05T11:52:44.039Z,15.63
2018-09-05T11:55:12.190Z,15.47
2018-09-05T11:57:40.334Z,15.90
2018-09-05T12:00:08.603Z,16.57
2018-09-05T12:02:36.690Z,15.27
2018-09-05T12:05:05.039Z,14.50
2018-09-05T12:07:33.077Z,14.67
2018-09-05T12:10:01.285Z,15.00
2018-09-05T12:12:29.499Z,14.70
2018-09-05T12:14:57.628Z,15.17
2018-09-05T12:17:25.799Z,14.30
2018-09-05T12:19:53.922Z,14.43
2018-09-05T12:22:22.072Z,15.00
2018-09-05T12:24:50.206Z,14.33
2018-09-05T12:27:18.359Z,13.67
2018-09-05T12:29:46.521Z,14.00
2018-09-05T12:32:14.694Z,14.80
2018-09-05T12:34:42.842Z,14.07
2018-09-05T12:37:11.048Z,14.80
2018-09-05T12:39:39.147Z,14.23
2018-09-05T12:42:07.290Z,13.17
2018-09-05T12:44:35.520Z,12.57
2018-09-05T12:47:03.631Z,14.57
2018-09-05T12:49:31.779Z,12.90
2018-09-05T12:51:59.995Z,14.27
2018-09-05T12:54:28.196Z,13.50
2018-09-05T12:56:56.313Z,14.13
2018-09-05T12:59:24.610Z,12.97
2018-09-05T13:01:52.606Z,14.00
2018-09-05T13:04:20.759Z,12.73
2018-09-05T13:06:49.023Z,13.60
2018-09-05T13:09:17.238Z,14.23
2018-09-05T13:11:45.356Z,14.40
2018-09-05T13:14:13.445Z,13.83
2018-09-05T13:16:41.656Z,13.90
2018-09-05T13:19:09.798Z,12.80
2018-09-05T13:21:39.420Z,14.23
2018-09-05T13:24:07.600Z,14.27
2018-09-05T13:26:35.752Z,13.47
2018-09-05T13:29:03.931Z,14.40
2018-09-05T13:31:32.083Z,13.90
2018-09-05T13:34:00.224Z,16.00
2018-09-05T13:36:28.436Z,13.00
2018-09-05T13:38:56.558Z,13.60
2018-09-05T13:41:24.809Z,12.80
2018-09-05T13:43:53.265Z,13.80
2018-09-05T13:46:21.505Z,14.17
2018-09-05T13:48:49.627Z,12.50
2018-09-05T13:51:17.846Z,13.50
2018-09-05T13:53:45.972Z,11.30
2018-09-05T13:56:14.180Z,12.10
2018-09-05T13:58:42.275Z,12.20
2018-09-05T14:01:10.511Z,12.53
2018-09-05T14:03:38.625Z,11.20
2018-09-05T14:06:06.815Z,12.20
2018-09-05T14:08:34.945Z,12.83
2018-09-05T14:11:03.153Z,12.47
2018-09-05T14:13:31.386Z,13.17
2018-09-05T14:15:59.484Z,14.53
2018-09-05T14:18:27.620Z,13.30
2018-09-05T14:20:55.803Z,13.67
2018-09-05T14:23:23.959Z,12.87
2018-09-05T14:25:52.093Z,12.60
2018-09-05T14:28:20.267Z,13.43
2018-09-05T14:30:48.420Z,13.70
2018-09-05T14:33:16.712Z,11.00
2018-09-05T14:35:44.794Z,13.00
2018-09-05T14:38:12.949Z,12.97
2018-09-05T14:40:41.150Z,13.50
2018-09-05T14:43:09.316Z,11.97
2018-09-05T14:45:37.477Z,12.60
2018-09-05T14:48:05.647Z,12.07
2018-09-05T14:50:33.812Z,13.30
2018-09-05T14:53:02.003Z,12.97
2018-09-05T14:55:30.176Z,12.20
2018-09-05T14:57:58.351Z,12.60
2018-09-05T15:00:26.508Z,13.90
2018-09-05T15:02:54.703Z,12.67
2018-09-05T15:05:22.880Z,14.80
2018-09-05T15:07:51.701Z,13.90
2018-09-05T15:10:19.944Z,10.77
2018-09-05T15:12:48.114Z,12.27
2018-09-05T15:15:16.671Z,12.80
2018-09-05T15:17:44.899Z,11.60
2018-09-05T15:20:12.970Z,12.97
2018-09-05T15:22:41.340Z,12.40
2018-09-05T15:25:09.708Z,13.20
2018-09-05T15:27:38.076Z,14.07
2018-09-05T15:30:06.991Z,11.17
2018-09-05T15:32:35.111Z,11.63
2018-09-05T15:35:03.315Z,12.33
2018-09-05T15:37:31.503Z,14.67
2018-09-05T15:39:59.641Z,12.23
2018-09-05T15:42:27.889Z,12.27
2018-09-05T15:44:56.132Z,12.70
2018-09-05T15:47:24.336Z,12.67
2018-09-05T15:49:52.569Z,12.20
2018-09-05T15:52:20.784Z,12.87
2018-09-05T15:54:49.157Z,12.57
2018-09-05T15:57:17.436Z,13.60
2018-09-05T15:59:45.704Z,12.60
2018-09-05T16:02:13.915Z,11.80
2018-09-05T16:04:42.340Z,12.43
2018-09-05T16:07:10.547Z,12.70
2018-09-05T16:09:38.824Z,13.70
2018-09-05T16:12:07.023Z,13.07
2018-09-05T16:14:35.225Z,12.97
2018-09-05T16:17:03.437Z,12.30
2018-09-05T16:19:31.608Z,14.47
2018-09-05T16:21:59.878Z,12.80
2018-09-05T16:24:27.980Z,13.17
2018-09-05T16:26:56.304Z,12.97
2018-09-05T16:29:24.538Z,12.17
2018-09-05T16:31:52.714Z,12.97
2018-09-05T16:34:20.963Z,13.70
2018-09-05T16:36:49.074Z,14.47
2018-09-05T16:39:17.385Z,13.60
2018-09-05T16:41:45.576Z,13.20
2018-09-05T16:44:13.870Z,12.83
2018-09-05T16:46:42.061Z,14.13
2018-09-05T16:49:10.252Z,13.80
2018-09-05T16:51:38.379Z,14.50
2018-09-05T16:54:06.738Z,12.80
2018-09-05T16:56:34.956Z,12.07
2018-09-05T16:59:03.139Z,12.97
2018-09-05T17:01:31.433Z,12.63
2018-09-05T17:03:59.713Z,12.80
2018-09-05T17:06:27.847Z,12.33
2018-09-05T17:08:56.037Z,13.07
2018-09-05T17:11:24.157Z,11.67
2018-09-05T17:13:52.307Z,13.77
2018-09-05T17:16:20.614Z,14.90
2018-09-05T17:18:48.728Z,14.00
2018-09-05T17:21:16.919Z,14.50
2018-09-05T17:23:45.898Z,13.97
2018-09-05T17:26:14.136Z,14.27
2018-09-05T17:28:42.322Z,13.37
2018-09-05T17:31:10.651Z,14.30
2018-09-05T17:33:38.984Z,13.30
2018-09-05T17:36:07.211Z,13.80
2018-09-05T17:38:35.432Z,14.77
2018-09-05T17:41:03.705Z,15.40
2018-09-05T17:43:31.882Z,13.70
2018-09-05T17:46:00.149Z,13.70
2018-09-05T17:48:28.281Z,13.37
2018-09-05T17:50:56.514Z,14.37
2018-09-05T17:53:24.762Z,14.10
2018-09-05T17:55:52.874Z,14.33
2018-09-05T17:58:21.034Z,14.80
2018-09-05T18:00:49.278Z,13.47
2018-09-05T18:03:17.447Z,13.80
2018-09-05T18:05:45.587Z,15.50
2018-09-05T18:08:13.800Z,16.23
2018-09-05T18:10:42.112Z,14.20
2018-09-05T18:13:10.229Z,14.37
2018-09-05T18:15:38.459Z,14.80
2018-09-05T18:18:06.682Z,14.00
2018-09-05T18:20:35.017Z,14.50
2018-09-05T18:23:03.251Z,15.20
2018-09-05T18:25:31.550Z,15.23
2018-09-05T18:27:59.832Z,14.30
2018-09-05T18:30:28.027Z,13.27
2018-09-05T18:32:56.183Z,14.30
2018-09-05T18:35:24.412Z,15.50
2018-09-05T18:37:52.569Z,13.87
2018-09-05T18:40:20.793Z,14.40
2018-09-05T18:42:48.948Z,12.80
2018-09-05T18:45:17.137Z,15.73
2018-09-05T18:47:45.387Z,13.47
2018-09-05T18:50:13.703Z,16.87
2018-09-05T18:52:42.005Z,14.83
2018-09-05T18:55:10.265Z,13.97
2018-09-05T18:57:38.524Z,14.27
2018-09-05T19:00:06.767Z,13.90
2018-09-05T19:02:34.908Z,13.97
2018-09-05T19:05:03.256Z,12.63
2018-09-05T19:07:31.464Z,13.47
2018-09-05T19:09:59.690Z,12.97
2018-09-05T19:12:27.847Z,12.97
2018-09-05T19:14:55.962Z,14.53
2018-09-05T19:17:24.451Z,15.63
2018-09-05T19:19:52.749Z,16.90
2018-09-05T19:22:21.036Z,15.60
2018-09-05T19:24:49.248Z,16.27
2018-09-05T19:27:17.490Z,15.60
2018-09-05T19:29:45.688Z,15.07
2018-09-05T19:32:13.867Z,15.10
2018-09-05T19:34:42.070Z,15.20
2018-09-05T19:37:10.352Z,15.63
2018-09-05T19:39:38.556Z,14.87
2018-09-05T19:42:06.919Z,15.60
2018-09-05T19:44:35.075Z,15.43
2018-09-05T19:47:03.347Z,16.73
2018-09-05T19:49:31.541Z,15.87
2018-09-05T19:51:59.772Z,15.13
2018-09-05T19:54:28.002Z,14.67
2018-09-05T19:56:56.203Z,15.17
2018-09-05T19:59:24.410Z,15.10
2018-09-05T20:01:52.621Z,15.53
2018-09-05T20:04:20.902Z,15.50
2018-09-05T20:06:49.263Z,14.83
2018-09-05T20:09:17.497Z,16.10
2018-09-05T20:11:45.752Z,15.47
2018-09-05T20:14:13.964Z,16.30
2018-09-05T20:16:42.275Z,15.70
2018-09-05T20:19:10.519Z,15.20
2018-09-05T20:21:38.592Z,15.17
2018-09-05T20:24:06.823Z,15.07
2018-09-05T20:26:35.076Z,16.87
2018-09-05T20:29:03.781Z,15.57
2018-09-05T20:31:32.069Z,17.00
2018-09-05T20:34:00.343Z,16.20
2018-09-05T20:36:28.570Z,15.70
2018-09-05T20:38:56.941Z,15.40
2018-09-05T20:41:25.066Z,16.13
2018-09-05T20:43:53.285Z,16.97
2018-09-05T20:46:21.403Z,15.77
2018-09-05T20:48:49.498Z,16.60
2018-09-05T20:51:17.664Z,15.13
2018-09-05T20:53:45.812Z,16.53
2018-09-05T20:56:14.041Z,18.10
2018-09-05T20:58:42.326Z,16.10
2018-09-05T21:01:10.560Z,14.90
2018-09-05T21:03:38.705Z,16.17
2018-09-05T21:06:06.840Z,22.87
2018-09-05T21:08:34.925Z,14.73
2018-09-05T21:11:03.153Z,14.97
2018-09-05T21:13:31.364Z,14.83
2018-09-05T21:15:59.536Z,15.27
2018-09-05T21:18:27.709Z,17.10
2018-09-05T21:20:58.363Z,16.50
2018-09-05T21:23:28.585Z,14.13
2018-09-05T21:25:56.756Z,16.93
2018-09-05T21:28:24.947Z,26.10
2018-09-05T21:30:53.224Z,16.07
2018-09-05T21:33:21.555Z,17.43
2018-09-05T21:35:49.709Z,15.47
2018-09-05T21:38:18.053Z,17.00
2018-09-05T21:40:46.252Z,15.37
2018-09-05T21:43:14.450Z,14.50
2018-09-05T21:45:42.584Z,16.90
2018-09-05T21:48:10.771Z,15.60
2018-09-05T21:50:38.903Z,16.07
2018-09-05T21:53:07.151Z,15.60
2018-09-05T21:55:35.404Z,17.73
2018-09-05T21:58:03.583Z,15.50
2018-09-05T22:00:31.833Z,15.00
2018-09-05T22:03:00.016Z,19.20
2018-09-05T22:05:28.190Z,20.00
2018-09-05T22:07:56.393Z,15.60
2018-09-05T22:10:24.459Z,16.87
2018-09-05T22:12:52.589Z,14.83
2018-09-05T22:15:20.752Z,17.47
2018-09-05T22:17:48.951Z,15.07
2018-09-05T22:20:17.147Z,14.10
2018-09-05T22:22:45.256Z,15.97
2018-09-05T22:25:13.474Z,14.30
2018-09-05T22:27:41.708Z,14.77
2018-09-05T22:30:09.923Z,16.00
2018-09-05T22:32:38.079Z,16.00
2018-09-05T22:35:07.188Z,15.43
2018-09-05T22:37:35.340Z,16.97
2018-09-05T22:40:03.514Z,15.87
2018-09-05T22:42:31.736Z,16.10
2018-09-05T22:45:16.977Z,14.23
2018-09-05T22:48:09.669Z,15.00
2018-09-05T22:55:16.904Z,15.87
2018-09-05T23:00:08.557Z,14.57
2018-09-05T23:03:11.876Z,16.00
2018-09-05T23:07:58.576Z,14.90
2018-09-05T23:10:43.772Z,14.70
2018-09-05T23:13:28.904Z,14.40
2018-09-05T23:16:13.997Z,15.70
2018-09-05T23:19:05.908Z,15.80
2018-09-05T23:21:34.007Z,16.37
2018-09-05T23:24:04.969Z,14.40
2018-09-05T23:26:33.151Z,15.10
2018-09-05T23:29:01.281Z,15.47
2018-09-05T23:31:29.522Z,14.60
2018-09-05T23:33:57.723Z,14.50
2018-09-05T23:36:26.168Z,14.97
2018-09-05T23:38:54.368Z,15.90
2018-09-05T23:41:22.491Z,15.90
2018-09-05T23:43:50.630Z,15.50
2018-09-05T23:46:18.780Z,14.57
2018-09-05T23:48:46.918Z,15.20
2018-09-05T23:51:15.062Z,15.20
2018-09-05T23:53:43.298Z,15.17
2018-09-05T23:56:11.477Z,14.93
2018-09-05T23:58:39.634Z,13.87
